sensor_id;sensor_type;location;lat;lon;timestamp;pressure;altitude;pressure_sealevel;temperature;humidity
33795;BME280;51430;52.242;21.118;2022-07-17T00:00:54;100591.77;;;13.06;94.15
33795;BME280;51430;52.242;21.118;2022-07-17T00:03:22;100593.92;;;13.11;93.99
33795;BME280;51430;52.242;21.118;2022-07-17T00:05:50;100598.48;;;13.20;93.29
33795;BME280;51430;52.242;21.118;2022-07-17T00:08:18;100592.64;;;13.18;92.90
33795;BME280;51430;52.242;21.118;2022-07-17T00:10:46;100593.36;;;13.22;93.12
33795;BME280;51430;52.242;21.118;2022-07-17T00:13:14;100596.71;;;13.20;93.04
33795;BME280;51430;52.242;21.118;2022-07-17T00:15:42;100597.02;;;13.18;92.94
33795;BME280;51430;52.242;21.118;2022-07-17T00:18:11;100593.23;;;13.21;92.87
33795;BME280;51430;52.242;21.118;2022-07-17T00:20:39;100595.83;;;13.18;92.78
33795;BME280;51430;52.242;21.118;2022-07-17T00:23:07;100598.50;;;13.17;92.89
33795;BME280;51430;52.242;21.118;2022-07-17T00:25:35;100602.33;;;13.19;92.99
33795;BME280;51430;52.242;21.118;2022-07-17T00:28:03;100596.86;;;13.20;92.77
33795;BME280;51430;52.242;21.118;2022-07-17T00:30:31;100602.02;;;13.17;92.67
33795;BME280;51430;52.242;21.118;2022-07-17T00:32:59;100609.06;;;13.16;92.89
33795;BME280;51430;52.242;21.118;2022-07-17T00:35:27;100612.83;;;13.20;92.81
33795;BME280;51430;52.242;21.118;2022-07-17T00:37:55;100617.48;;;13.14;92.83
33795;BME280;51430;52.242;21.118;2022-07-17T00:40:24;100620.05;;;13.05;93.14
33795;BME280;51430;52.242;21.118;2022-07-17T00:42:52;100619.08;;;12.99;93.51
33795;BME280;51430;52.242;21.118;2022-07-17T00:45:20;100621.08;;;13.02;93.47
33795;BME280;51430;52.242;21.118;2022-07-17T00:48:00;100623.44;;;12.93;93.74
33795;BME280;51430;52.242;21.118;2022-07-17T00:50:36;100621.80;;;12.93;93.67
33795;BME280;51430;52.242;21.118;2022-07-17T00:53:07;100622.73;;;12.84;93.86
33795;BME280;51430;52.242;21.118;2022-07-17T00:55:54;100628.54;;;12.80;94.17
33795;BME280;51430;52.242;21.118;2022-07-17T00:58:24;100633.24;;;12.82;94.26
33795;BME280;51430;52.242;21.118;2022-07-17T01:00:54;100637.23;;;12.84;94.22
33795;BME280;51430;52.242;21.118;2022-07-17T01:03:24;100636.86;;;12.81;94.24
33795;BME280;51430;52.242;21.118;2022-07-17T01:05:52;100637.34;;;12.77;94.46
33795;BME280;51430;52.242;21.118;2022-07-17T01:08:20;100641.71;;;12.75;94.63
33795;BME280;51430;52.242;21.118;2022-07-17T01:10:48;100640.27;;;12.79;94.79
33795;BME280;51430;52.242;21.118;2022-07-17T01:13:17;100649.45;;;12.78;94.60
33795;BME280;51430;52.242;21.118;2022-07-17T01:15:46;100655.21;;;12.74;94.79
33795;BME280;51430;52.242;21.118;2022-07-17T01:18:15;100655.92;;;12.70;94.83
33795;BME280;51430;52.242;21.118;2022-07-17T01:20:45;100656.09;;;12.78;95.08
33795;BME280;51430;52.242;21.118;2022-07-17T01:23:15;100660.55;;;12.76;95.24
33795;BME280;51430;52.242;21.118;2022-07-17T01:25:44;100660.95;;;12.79;95.65
33795;BME280;51430;52.242;21.118;2022-07-17T01:28:13;100661.64;;;12.79;95.52
33795;BME280;51430;52.242;21.118;2022-07-17T01:30:47;100659.46;;;12.76;95.58
33795;BME280;51430;52.242;21.118;2022-07-17T01:33:16;100658.80;;;12.76;95.79
33795;BME280;51430;52.242;21.118;2022-07-17T01:35:44;100655.46;;;12.64;95.90
33795;BME280;51430;52.242;21.118;2022-07-17T01:38:13;100653.66;;;12.61;96.23
33795;BME280;51430;52.242;21.118;2022-07-17T01:40:40;100655.80;;;12.56;96.20
33795;BME280;51430;52.242;21.118;2022-07-17T01:43:08;100657.53;;;12.50;96.39
33795;BME280;51430;52.242;21.118;2022-07-17T01:45:37;100660.30;;;12.46;96.68
33795;BME280;51430;52.242;21.118;2022-07-17T01:48:06;100660.48;;;12.39;96.91
33795;BME280;51430;52.242;21.118;2022-07-17T01:50:34;100663.12;;;12.45;96.73
33795;BME280;51430;52.242;21.118;2022-07-17T01:53:02;100668.43;;;12.42;96.53
33795;BME280;51430;52.242;21.118;2022-07-17T01:55:30;100667.86;;;12.32;96.95
33795;BME280;51430;52.242;21.118;2022-07-17T01:57:57;100668.81;;;12.40;96.97
33795;BME280;51430;52.242;21.118;2022-07-17T02:00:25;100672.04;;;12.35;97.01
33795;BME280;51430;52.242;21.118;2022-07-17T02:02:53;100675.02;;;12.27;97.27
33795;BME280;51430;52.242;21.118;2022-07-17T02:05:21;100678.83;;;12.28;97.34
33795;BME280;51430;52.242;21.118;2022-07-17T02:07:49;100682.92;;;12.25;97.42
33795;BME280;51430;52.242;21.118;2022-07-17T02:10:17;100682.21;;;12.25;97.64
33795;BME280;51430;52.242;21.118;2022-07-17T02:12:45;100686.55;;;12.24;97.72
33795;BME280;51430;52.242;21.118;2022-07-17T02:15:13;100688.66;;;12.25;97.76
33795;BME280;51430;52.242;21.118;2022-07-17T02:17:42;100689.95;;;12.25;97.71
33795;BME280;51430;52.242;21.118;2022-07-17T02:20:11;100687.88;;;12.22;97.90
33795;BME280;51430;52.242;21.118;2022-07-17T02:22:40;100688.38;;;12.22;97.97
33795;BME280;51430;52.242;21.118;2022-07-17T02:25:09;100686.98;;;12.22;98.02
33795;BME280;51430;52.242;21.118;2022-07-17T02:27:38;100691.00;;;12.20;98.15
33795;BME280;51430;52.242;21.118;2022-07-17T02:30:17;100686.73;;;12.17;98.21
33795;BME280;51430;52.242;21.118;2022-07-17T02:32:45;100690.41;;;12.19;98.40
33795;BME280;51430;52.242;21.118;2022-07-17T02:35:14;100691.80;;;12.16;98.70
33795;BME280;51430;52.242;21.118;2022-07-17T02:37:42;100690.52;;;12.15;98.88
33795;BME280;51430;52.242;21.118;2022-07-17T02:40:11;100694.65;;;12.29;99.03
33795;BME280;51430;52.242;21.118;2022-07-17T02:42:40;100692.36;;;12.36;98.93
33795;BME280;51430;52.242;21.118;2022-07-17T02:45:08;100693.04;;;12.39;98.91
33795;BME280;51430;52.242;21.118;2022-07-17T02:47:37;100697.00;;;12.48;99.02
33795;BME280;51430;52.242;21.118;2022-07-17T02:50:07;100691.66;;;12.52;98.99
33795;BME280;51430;52.242;21.118;2022-07-17T02:52:36;100700.61;;;12.58;99.00
33795;BME280;51430;52.242;21.118;2022-07-17T02:55:06;100695.23;;;12.62;98.76
33795;BME280;51430;52.242;21.118;2022-07-17T02:57:35;100699.86;;;12.63;98.98
33795;BME280;51430;52.242;21.118;2022-07-17T03:00:05;100697.05;;;12.65;98.71
33795;BME280;51430;52.242;21.118;2022-07-17T03:02:34;100701.66;;;12.62;98.76
33795;BME280;51430;52.242;21.118;2022-07-17T03:05:04;100704.56;;;12.61;98.71
33795;BME280;51430;52.242;21.118;2022-07-17T03:07:32;100707.27;;;12.60;98.81
33795;BME280;51430;52.242;21.118;2022-07-17T03:10:00;100713.79;;;12.59;98.74
33795;BME280;51430;52.242;21.118;2022-07-17T03:12:28;100712.23;;;12.63;98.78
33795;BME280;51430;52.242;21.118;2022-07-17T03:14:56;100716.02;;;12.66;98.75
33795;BME280;51430;52.242;21.118;2022-07-17T03:17:24;100716.77;;;12.72;98.49
33795;BME280;51430;52.242;21.118;2022-07-17T03:19:53;100721.44;;;12.80;98.46
33795;BME280;51430;52.242;21.118;2022-07-17T03:22:20;100722.42;;;12.89;97.81
33795;BME280;51430;52.242;21.118;2022-07-17T03:24:49;100724.98;;;12.92;97.55
33795;BME280;51430;52.242;21.118;2022-07-17T03:27:17;100735.36;;;12.96;97.45
33795;BME280;51430;52.242;21.118;2022-07-17T03:29:44;100736.45;;;13.06;96.92
33795;BME280;51430;52.242;21.118;2022-07-17T03:32:12;100737.80;;;13.09;96.54
33795;BME280;51430;52.242;21.118;2022-07-17T03:34:41;100740.08;;;13.16;96.85
33795;BME280;51430;52.242;21.118;2022-07-17T03:37:09;100743.91;;;13.25;95.77
33795;BME280;51430;52.242;21.118;2022-07-17T03:39:37;100745.49;;;13.22;95.70
33795;BME280;51430;52.242;21.118;2022-07-17T03:42:05;100747.97;;;13.26;95.81
33795;BME280;51430;52.242;21.118;2022-07-17T03:44:33;100748.35;;;13.34;95.45
33795;BME280;51430;52.242;21.118;2022-07-17T03:47:01;100751.25;;;13.35;95.30
33795;BME280;51430;52.242;21.118;2022-07-17T03:49:28;100749.99;;;13.38;95.23
33795;BME280;51430;52.242;21.118;2022-07-17T03:51:56;100750.72;;;13.50;94.94
33795;BME280;51430;52.242;21.118;2022-07-17T03:54:24;100746.49;;;13.57;94.26
33795;BME280;51430;52.242;21.118;2022-07-17T03:56:52;100751.11;;;13.54;93.61
33795;BME280;51430;52.242;21.118;2022-07-17T03:59:20;100749.89;;;13.56;93.66
33795;BME280;51430;52.242;21.118;2022-07-17T04:01:48;100747.67;;;13.64;93.56
33795;BME280;51430;52.242;21.118;2022-07-17T04:04:16;100749.18;;;13.69;92.89
33795;BME280;51430;52.242;21.118;2022-07-17T04:06:44;100748.74;;;13.81;92.53
33795;BME280;51430;52.242;21.118;2022-07-17T04:09:12;100748.70;;;13.90;92.17
33795;BME280;51430;52.242;21.118;2022-07-17T04:11:40;100752.74;;;13.96;91.14
33795;BME280;51430;52.242;21.118;2022-07-17T04:14:08;100755.60;;;13.93;90.68
33795;BME280;51430;52.242;21.118;2022-07-17T04:16:37;100757.21;;;13.87;91.02
33795;BME280;51430;52.242;21.118;2022-07-17T04:19:05;100757.73;;;13.89;91.08
33795;BME280;51430;52.242;21.118;2022-07-17T04:21:33;100761.09;;;13.86;90.94
33795;BME280;51430;52.242;21.118;2022-07-17T04:24:01;100760.67;;;13.89;90.51
33795;BME280;51430;52.242;21.118;2022-07-17T04:26:29;100766.95;;;13.85;90.47
33795;BME280;51430;52.242;21.118;2022-07-17T04:28:57;100769.30;;;13.93;90.18
33795;BME280;51430;52.242;21.118;2022-07-17T04:31:25;100771.46;;;13.88;90.41
33795;BME280;51430;52.242;21.118;2022-07-17T04:33:54;100777.10;;;13.93;90.56
33795;BME280;51430;52.242;21.118;2022-07-17T04:36:22;100778.35;;;13.89;90.67
33795;BME280;51430;52.242;21.118;2022-07-17T04:38:50;100781.91;;;13.99;90.61
33795;BME280;51430;52.242;21.118;2022-07-17T04:41:18;100790.25;;;14.06;90.43
33795;BME280;51430;52.242;21.118;2022-07-17T04:43:46;100792.33;;;14.17;90.42
33795;BME280;51430;52.242;21.118;2022-07-17T04:46:14;100794.20;;;14.26;88.90
33795;BME280;51430;52.242;21.118;2022-07-17T04:48:42;100791.89;;;14.28;88.72
33795;BME280;51430;52.242;21.118;2022-07-17T04:51:10;100791.98;;;14.34;88.65
33795;BME280;51430;52.242;21.118;2022-07-17T04:53:38;100787.95;;;14.46;88.26
33795;BME280;51430;52.242;21.118;2022-07-17T04:56:06;100791.35;;;14.51;87.35
33795;BME280;51430;52.242;21.118;2022-07-17T04:58:35;100790.23;;;14.48;87.35
33795;BME280;51430;52.242;21.118;2022-07-17T05:01:03;100795.06;;;14.38;87.32
33795;BME280;51430;52.242;21.118;2022-07-17T05:03:31;100794.48;;;14.39;87.73
33795;BME280;51430;52.242;21.118;2022-07-17T05:05:59;100794.11;;;14.43;87.49
33795;BME280;51430;52.242;21.118;2022-07-17T05:08:27;100797.54;;;14.40;87.51
33795;BME280;51430;52.242;21.118;2022-07-17T05:10:55;100806.61;;;14.41;87.57
33795;BME280;51430;52.242;21.118;2022-07-17T05:13:23;100808.69;;;14.41;87.51
33795;BME280;51430;52.242;21.118;2022-07-17T05:15:52;100812.67;;;14.40;87.21
33795;BME280;51430;52.242;21.118;2022-07-17T05:18:20;100816.20;;;14.31;87.08
33795;BME280;51430;52.242;21.118;2022-07-17T05:20:48;100815.88;;;14.31;87.41
33795;BME280;51430;52.242;21.118;2022-07-17T05:23:15;100818.08;;;14.32;87.34
33795;BME280;51430;52.242;21.118;2022-07-17T05:25:43;100819.04;;;14.39;87.82
33795;BME280;51430;52.242;21.118;2022-07-17T05:28:12;100816.42;;;14.70;86.81
33795;BME280;51430;52.242;21.118;2022-07-17T05:30:40;100815.46;;;14.87;85.48
33795;BME280;51430;52.242;21.118;2022-07-17T05:33:08;100816.61;;;15.01;85.03
33795;BME280;51430;52.242;21.118;2022-07-17T05:35:36;100821.38;;;15.27;84.27
33795;BME280;51430;52.242;21.118;2022-07-17T05:38:10;100822.60;;;15.53;82.65
33795;BME280;51430;52.242;21.118;2022-07-17T05:40:38;100820.54;;;15.61;82.05
33795;BME280;51430;52.242;21.118;2022-07-17T05:43:06;100825.02;;;15.75;81.07
33795;BME280;51430;52.242;21.118;2022-07-17T05:45:34;100825.63;;;15.84;80.71
33795;BME280;51430;52.242;21.118;2022-07-17T05:48:02;100826.94;;;16.04;80.32
33795;BME280;51430;52.242;21.118;2022-07-17T05:50:30;100832.66;;;16.14;78.90
33795;BME280;51430;52.242;21.118;2022-07-17T05:52:59;100833.92;;;16.18;78.59
33795;BME280;51430;52.242;21.118;2022-07-17T05:55:26;100835.72;;;16.16;78.73
33795;BME280;51430;52.242;21.118;2022-07-17T05:57:54;100843.92;;;16.39;77.74
33795;BME280;51430;52.242;21.118;2022-07-17T06:00:22;100848.40;;;16.36;77.17
33795;BME280;51430;52.242;21.118;2022-07-17T06:02:50;100848.35;;;16.41;77.26
33795;BME280;51430;52.242;21.118;2022-07-17T06:05:18;100849.14;;;16.68;77.72
33795;BME280;51430;52.242;21.118;2022-07-17T06:07:47;100857.27;;;17.36;77.05
33795;BME280;51430;52.242;21.118;2022-07-17T06:10:15;100859.64;;;17.94;73.11
33795;BME280;51430;52.242;21.118;2022-07-17T06:12:43;100863.60;;;17.99;71.20
33795;BME280;51430;52.242;21.118;2022-07-17T06:15:11;100866.62;;;18.25;70.77
33795;BME280;51430;52.242;21.118;2022-07-17T06:17:39;100870.40;;;18.22;69.50
33795;BME280;51430;52.242;21.118;2022-07-17T06:20:12;100874.04;;;18.06;70.04
33795;BME280;51430;52.242;21.118;2022-07-17T06:22:41;100875.64;;;18.06;70.47
33795;BME280;51430;52.242;21.118;2022-07-17T06:25:10;100874.02;;;18.13;70.39
33795;BME280;51430;52.242;21.118;2022-07-17T06:27:40;100876.15;;;18.43;69.34
33795;BME280;51430;52.242;21.118;2022-07-17T06:30:10;100877.65;;;18.51;68.26
33795;BME280;51430;52.242;21.118;2022-07-17T06:32:38;100879.76;;;18.68;66.78
33795;BME280;51430;52.242;21.118;2022-07-17T06:35:07;100877.43;;;18.77;66.68
33795;BME280;51430;52.242;21.118;2022-07-17T06:37:36;100882.95;;;19.09;67.06
33795;BME280;51430;52.242;21.118;2022-07-17T06:40:05;100883.40;;;19.29;65.61
33795;BME280;51430;52.242;21.118;2022-07-17T06:42:34;100889.56;;;19.68;64.83
33795;BME280;51430;52.242;21.118;2022-07-17T06:45:02;100892.84;;;19.67;64.70
33795;BME280;51430;52.242;21.118;2022-07-17T06:47:30;100889.82;;;19.57;65.19
33795;BME280;51430;52.242;21.118;2022-07-17T06:49:58;100892.52;;;19.33;64.81
33795;BME280;51430;52.242;21.118;2022-07-17T06:52:26;100894.88;;;19.51;65.08
33795;BME280;51430;52.242;21.118;2022-07-17T06:54:57;100900.32;;;19.93;63.72
33795;BME280;51430;52.242;21.118;2022-07-17T06:57:26;100902.55;;;19.98;63.46
33795;BME280;51430;52.242;21.118;2022-07-17T06:59:54;100905.20;;;19.93;63.35
33795;BME280;51430;52.242;21.118;2022-07-17T07:02:21;100909.38;;;20.24;63.19
33795;BME280;51430;52.242;21.118;2022-07-17T07:04:49;100912.09;;;20.35;62.07
33795;BME280;51430;52.242;21.118;2022-07-17T07:07:17;100914.54;;;20.23;61.88
33795;BME280;51430;52.242;21.118;2022-07-17T07:09:45;100911.02;;;20.25;62.52
33795;BME280;51430;52.242;21.118;2022-07-17T07:12:13;100918.23;;;20.94;60.60
33795;BME280;51430;52.242;21.118;2022-07-17T07:14:41;100920.27;;;21.55;58.67
33795;BME280;51430;52.242;21.118;2022-07-17T07:17:09;100926.06;;;21.90;57.00
33795;BME280;51430;52.242;21.118;2022-07-17T07:19:38;100924.80;;;21.65;57.94
33795;BME280;51430;52.242;21.118;2022-07-17T07:22:06;100924.88;;;21.29;58.29
33795;BME280;51430;52.242;21.118;2022-07-17T07:24:33;100931.57;;;21.68;58.13
33795;BME280;51430;52.242;21.118;2022-07-17T07:27:02;100938.41;;;21.39;57.83
33795;BME280;51430;52.242;21.118;2022-07-17T07:29:30;100937.43;;;20.99;59.55
33795;BME280;51430;52.242;21.118;2022-07-17T07:31:58;100935.64;;;21.37;59.66
33795;BME280;51430;52.242;21.118;2022-07-17T07:34:26;100945.50;;;21.22;58.90
33795;BME280;51430;52.242;21.118;2022-07-17T07:36:54;100943.67;;;20.92;60.12
33795;BME280;51430;52.242;21.118;2022-07-17T07:39:22;100951.00;;;20.66;61.49
33795;BME280;51430;52.242;21.118;2022-07-17T07:41:50;100951.07;;;21.10;61.39
33795;BME280;51430;52.242;21.118;2022-07-17T07:44:18;100956.00;;;21.18;60.09
33795;BME280;51430;52.242;21.118;2022-07-17T07:46:55;100953.94;;;21.45;59.66
33795;BME280;51430;52.242;21.118;2022-07-17T07:49:23;100958.41;;;21.85;58.81
33795;BME280;51430;52.242;21.118;2022-07-17T07:51:51;100962.75;;;21.84;58.54
33795;BME280;51430;52.242;21.118;2022-07-17T07:54:35;100959.67;;;21.20;60.16
33795;BME280;51430;52.242;21.118;2022-07-17T07:57:04;100961.12;;;20.49;62.31
33795;BME280;51430;52.242;21.118;2022-07-17T07:59:31;100960.14;;;20.50;62.53
33795;BME280;51430;52.242;21.118;2022-07-17T08:02:01;100958.74;;;20.61;62.53
33795;BME280;51430;52.242;21.118;2022-07-17T08:04:30;100957.33;;;20.85;62.10
33795;BME280;51430;52.242;21.118;2022-07-17T08:06:58;100963.30;;;21.05;61.59
33795;BME280;51430;52.242;21.118;2022-07-17T08:09:26;100962.94;;;21.82;59.67
33795;BME280;51430;52.242;21.118;2022-07-17T08:11:54;100965.20;;;22.41;57.46
33795;BME280;51430;52.242;21.118;2022-07-17T08:14:22;100970.67;;;22.43;57.69
33795;BME280;51430;52.242;21.118;2022-07-17T08:16:50;100969.02;;;22.68;56.56
33795;BME280;51430;52.242;21.118;2022-07-17T08:19:18;100973.56;;;22.70;55.95
33795;BME280;51430;52.242;21.118;2022-07-17T08:21:46;100968.44;;;23.13;55.33
33795;BME280;51430;52.242;21.118;2022-07-17T08:24:14;100973.60;;;23.35;54.51
33795;BME280;51430;52.242;21.118;2022-07-17T08:26:43;100975.91;;;23.09;54.99
33795;BME280;51430;52.242;21.118;2022-07-17T08:29:11;100973.52;;;23.15;54.48
33795;BME280;51430;52.242;21.118;2022-07-17T08:31:39;100972.60;;;22.90;55.57
33795;BME280;51430;52.242;21.118;2022-07-17T08:34:07;100968.39;;;23.50;53.23
33795;BME280;51430;52.242;21.118;2022-07-17T08:36:36;100970.89;;;24.29;51.61
33795;BME280;51430;52.242;21.118;2022-07-17T08:39:04;100973.02;;;25.33;50.60
33795;BME280;51430;52.242;21.118;2022-07-17T08:41:37;100978.92;;;26.23;46.89
33795;BME280;51430;52.242;21.118;2022-07-17T08:44:06;100978.45;;;26.63;45.71
33795;BME280;51430;52.242;21.118;2022-07-17T08:46:36;100981.67;;;26.23;45.79
33795;BME280;51430;52.242;21.118;2022-07-17T08:49:06;100975.30;;;25.36;48.08
33795;BME280;51430;52.242;21.118;2022-07-17T08:51:35;100974.30;;;26.08;47.28
33795;BME280;51430;52.242;21.118;2022-07-17T08:54:09;100976.16;;;25.95;46.72
33795;BME280;51430;52.242;21.118;2022-07-17T08:56:37;100976.77;;;25.79;46.25
33795;BME280;51430;52.242;21.118;2022-07-17T08:59:05;100979.42;;;26.67;45.71
33795;BME280;51430;52.242;21.118;2022-07-17T09:01:33;100976.27;;;27.68;43.75
33795;BME280;51430;52.242;21.118;2022-07-17T09:04:04;100984.70;;;27.12;43.66
33795;BME280;51430;52.242;21.118;2022-07-17T09:06:37;100984.68;;;25.35;46.86
33795;BME280;51430;52.242;21.118;2022-07-17T09:09:11;100976.55;;;24.51;49.27
33795;BME280;51430;52.242;21.118;2022-07-17T09:11:48;100977.10;;;24.40;50.46
33795;BME280;51430;52.242;21.118;2022-07-17T09:14:18;100976.17;;;25.60;47.61
33795;BME280;51430;52.242;21.118;2022-07-17T09:16:56;100980.92;;;27.05;42.97
33795;BME280;51430;52.242;21.118;2022-07-17T09:19:33;100987.51;;;26.96;40.96
33795;BME280;51430;52.242;21.118;2022-07-17T09:22:10;100985.23;;;27.32;41.67
33795;BME280;51430;52.242;21.118;2022-07-17T09:24:41;100984.98;;;27.96;39.39
33795;BME280;51430;52.242;21.118;2022-07-17T09:27:12;100986.38;;;27.12;40.09
33795;BME280;51430;52.242;21.118;2022-07-17T09:29:58;100985.88;;;26.82;40.89
33795;BME280;51430;52.242;21.118;2022-07-17T09:32:33;100982.41;;;27.14;40.53
33795;BME280;51430;52.242;21.118;2022-07-17T09:35:03;100987.54;;;27.54;40.89
33795;BME280;51430;52.242;21.118;2022-07-17T09:37:32;100982.38;;;28.16;40.81
33795;BME280;51430;52.242;21.118;2022-07-17T09:40:03;100989.70;;;27.39;40.26
33795;BME280;51430;52.242;21.118;2022-07-17T09:42:36;100984.89;;;26.39;42.29
33795;BME280;51430;52.242;21.118;2022-07-17T09:45:07;100989.56;;;26.06;42.80
33795;BME280;51430;52.242;21.118;2022-07-17T09:47:38;100984.91;;;27.02;40.02
33795;BME280;51430;52.242;21.118;2022-07-17T09:50:07;100979.98;;;28.03;38.46
33795;BME280;51430;52.242;21.118;2022-07-17T09:52:37;100979.48;;;27.64;39.91
33795;BME280;51430;52.242;21.118;2022-07-17T09:55:06;100983.05;;;26.52;41.31
33795;BME280;51430;52.242;21.118;2022-07-17T09:57:54;100978.92;;;25.33;42.94
33795;BME280;51430;52.242;21.118;2022-07-17T10:00:23;100971.13;;;24.67;42.94
33795;BME280;51430;52.242;21.118;2022-07-17T10:02:52;100978.87;;;25.52;41.79
33795;BME280;51430;52.242;21.118;2022-07-17T10:05:21;100976.23;;;25.25;42.41
33795;BME280;51430;52.242;21.118;2022-07-17T10:07:49;100978.34;;;26.50;40.87
33795;BME280;51430;52.242;21.118;2022-07-17T10:10:18;100981.58;;;26.46;40.00
33795;BME280;51430;52.242;21.118;2022-07-17T10:12:49;100975.89;;;25.63;40.16
33795;BME280;51430;52.242;21.118;2022-07-17T10:15:24;100977.03;;;25.02;40.97
33795;BME280;51430;52.242;21.118;2022-07-17T10:18:06;100982.08;;;24.28;42.80
33795;BME280;51430;52.242;21.118;2022-07-17T10:20:35;100982.48;;;24.96;41.84
33795;BME280;51430;52.242;21.118;2022-07-17T10:23:13;100989.75;;;26.70;39.06
33795;BME280;51430;52.242;21.118;2022-07-17T10:25:42;100989.23;;;28.26;36.17
33795;BME280;51430;52.242;21.118;2022-07-17T10:28:10;100991.60;;;28.36;36.13
33795;BME280;51430;52.242;21.118;2022-07-17T10:30:41;100997.46;;;27.19;38.02
33795;BME280;51430;52.242;21.118;2022-07-17T10:33:15;100990.61;;;26.13;38.45
33795;BME280;51430;52.242;21.118;2022-07-17T10:35:48;100985.77;;;25.49;40.56
33795;BME280;51430;52.242;21.118;2022-07-17T10:38:16;100986.23;;;25.84;41.10
33795;BME280;51430;52.242;21.118;2022-07-17T10:40:45;100992.50;;;27.25;38.93
33795;BME280;51430;52.242;21.118;2022-07-17T10:43:13;100995.84;;;29.12;36.28
33795;BME280;51430;52.242;21.118;2022-07-17T10:45:44;101000.80;;;30.71;34.47
33795;BME280;51430;52.242;21.118;2022-07-17T10:48:18;101002.64;;;31.98;32.30
33795;BME280;51430;52.242;21.118;2022-07-17T10:50:55;101001.84;;;32.59;30.98
33795;BME280;51430;52.242;21.118;2022-07-17T10:53:28;101004.45;;;31.87;30.98
33795;BME280;51430;52.242;21.118;2022-07-17T10:55:59;101001.69;;;30.79;32.87
33795;BME280;51430;52.242;21.118;2022-07-17T10:58:36;101001.27;;;29.64;33.53
33795;BME280;51430;52.242;21.118;2022-07-17T11:01:12;100993.49;;;28.25;35.72
33795;BME280;51430;52.242;21.118;2022-07-17T11:03:43;100996.71;;;27.15;38.19
33795;BME280;51430;52.242;21.118;2022-07-17T11:11:20;100991.67;;;25.39;40.29
33795;BME280;51430;52.242;21.118;2022-07-17T11:16:37;101000.23;;;26.80;39.38
33795;BME280;51430;52.242;21.118;2022-07-17T11:19:11;101008.34;;;26.52;39.39
33795;BME280;51430;52.242;21.118;2022-07-17T11:21:47;100998.67;;;25.68;40.72
33795;BME280;51430;52.242;21.118;2022-07-17T11:24:15;100992.55;;;24.97;42.19
33795;BME280;51430;52.242;21.118;2022-07-17T11:26:44;100999.70;;;24.59;43.06
33795;BME280;51430;52.242;21.118;2022-07-17T11:29:12;100999.34;;;24.77;42.85
33795;BME280;51430;52.242;21.118;2022-07-17T11:31:43;101005.96;;;26.35;39.86
33795;BME280;51430;52.242;21.118;2022-07-17T11:34:12;101002.39;;;27.76;37.62
33795;BME280;51430;52.242;21.118;2022-07-17T11:36:42;101002.31;;;28.49;37.13
33795;BME280;51430;52.242;21.118;2022-07-17T11:39:13;101004.05;;;29.52;34.94
33795;BME280;51430;52.242;21.118;2022-07-17T11:41:47;101009.31;;;29.96;34.12
33795;BME280;51430;52.242;21.118;2022-07-17T11:44:17;101008.66;;;30.19;33.15
33795;BME280;51430;52.242;21.118;2022-07-17T11:46:48;101009.94;;;29.35;34.85
33795;BME280;51430;52.242;21.118;2022-07-17T11:49:29;101006.94;;;28.59;35.37
33795;BME280;51430;52.242;21.118;2022-07-17T11:51:58;101013.89;;;26.94;38.49
33795;BME280;51430;52.242;21.118;2022-07-17T11:54:27;101006.68;;;25.61;40.18
33795;BME280;51430;52.242;21.118;2022-07-17T11:56:58;101008.42;;;24.55;42.44
33795;BME280;51430;52.242;21.118;2022-07-17T11:59:31;101009.06;;;24.12;43.64
33795;BME280;51430;52.242;21.118;2022-07-17T12:02:17;101007.92;;;23.92;44.10
33795;BME280;51430;52.242;21.118;2022-07-17T12:05:07;101008.23;;;23.83;44.04
33795;BME280;51430;52.242;21.118;2022-07-17T12:07:46;101013.58;;;23.74;43.06
33795;BME280;51430;52.242;21.118;2022-07-17T12:10:23;101008.13;;;23.86;43.19
33795;BME280;51430;52.242;21.118;2022-07-17T12:13:07;101004.27;;;24.47;42.44
33795;BME280;51430;52.242;21.118;2022-07-17T12:15:39;101009.01;;;27.37;37.87
33795;BME280;51430;52.242;21.118;2022-07-17T12:18:21;101011.09;;;28.95;34.16
33795;BME280;51430;52.242;21.118;2022-07-17T12:20:51;101007.01;;;30.22;32.72
33795;BME280;51430;52.242;21.118;2022-07-17T12:23:54;101014.34;;;31.32;31.35
33795;BME280;51430;52.242;21.118;2022-07-17T12:26:23;101017.39;;;32.89;29.89
33795;BME280;51430;52.242;21.118;2022-07-17T12:28:51;101019.19;;;33.40;27.99
33795;BME280;51430;52.242;21.118;2022-07-17T12:31:25;101013.04;;;33.61;28.46
33795;BME280;51430;52.242;21.118;2022-07-17T12:33:54;101016.91;;;33.70;27.92
33795;BME280;51430;52.242;21.118;2022-07-17T12:36:23;101019.64;;;33.14;27.26
33795;BME280;51430;52.242;21.118;2022-07-17T12:38:51;101015.91;;;32.31;28.21
33795;BME280;51430;52.242;21.118;2022-07-17T12:41:19;101013.83;;;32.12;28.96
33795;BME280;51430;52.242;21.118;2022-07-17T12:43:47;101016.16;;;31.61;28.76
33795;BME280;51430;52.242;21.118;2022-07-17T12:46:15;101013.40;;;30.60;29.83
33795;BME280;51430;52.242;21.118;2022-07-17T12:48:53;101013.36;;;29.39;31.09
33795;BME280;51430;52.242;21.118;2022-07-17T12:51:22;101000.29;;;27.91;33.70
33795;BME280;51430;52.242;21.118;2022-07-17T12:53:57;101003.58;;;27.64;34.30
33795;BME280;51430;52.242;21.118;2022-07-17T12:56:25;101003.88;;;27.50;35.31
33795;BME280;51430;52.242;21.118;2022-07-17T12:58:55;101010.80;;;27.71;33.88
33795;BME280;51430;52.242;21.118;2022-07-17T13:01:28;101005.98;;;28.07;32.50